Time;durP1;ratioP1;P1;durP2;ratioP2;P2;SDS_P1;SDS_P2;PMS_P1;PMS_P2;Temp;Humidity;BMP_temperature;BMP_pressure;BME280_temperature;BME280_humidity;BME280_pressure;Samples;Min_cycle;Max_cycle;Signal;HPM_P1;HPM_P2
2024/04/04 00:00:07;;;;;;;1.57;0.70;;;;;;;10.82;100.00;95510.13;5043179;28;20211;-86
2024/04/04 00:02:34;;;;;;;3.47;0.60;;;;;;;10.81;100.00;95518.22;5059098;28;20190;-86
2024/04/04 00:05:00;;;;;;;4.50;0.87;;;;;;;10.86;100.00;95518.38;5054913;28;20218;-87
2024/04/04 00:07:27;;;;;;;1.53;0.63;;;;;;;10.80;100.00;95516.66;5042945;28;20210;-88
2024/04/04 00:09:53;;;;;;;2.63;0.70;;;;;;;10.83;100.00;95510.91;5043062;28;20194;-87
2024/04/04 00:12:22;;;;;;;2.50;0.50;;;;;;;10.61;100.00;95507.94;5045209;28;20194;-88
2024/04/04 00:14:48;;;;;;;1.80;0.60;;;;;;;10.63;100.00;95513.00;5049794;28;20720;-86
2024/04/04 00:17:15;;;;;;;3.10;0.83;;;;;;;10.62;100.00;95508.75;5035297;28;20305;-87
2024/04/04 00:19:41;;;;;;;3.27;0.80;;;;;;;10.58;100.00;95516.28;5037282;28;20194;-87
2024/04/04 00:22:08;;;;;;;3.17;0.90;;;;;;;10.46;100.00;95504.06;5036049;28;20209;-87
2024/04/04 00:24:33;;;;;;;2.00;0.60;;;;;;;10.41;100.00;95502.91;5034960;28;20281;-87
2024/04/04 00:27:00;;;;;;;1.77;0.53;;;;;;;10.41;100.00;95504.72;5037235;28;20225;-86
2024/04/04 00:29:28;;;;;;;4.83;0.87;;;;;;;10.48;100.00;95520.47;5035490;28;20319;-86
2024/04/04 00:31:55;;;;;;;3.43;0.70;;;;;;;10.34;100.00;95512.69;5034967;28;20198;-87
2024/04/04 00:34:20;;;;;;;2.10;0.40;;;;;;;10.35;100.00;95514.31;5035450;28;20197;-87
2024/04/04 00:36:47;;;;;;;2.30;0.60;;;;;;;10.32;100.00;95512.13;5035089;28;20218;-87
2024/04/04 00:39:13;;;;;;;2.17;0.53;;;;;;;10.32;100.00;95511.31;5036211;28;20248;-87
2024/04/04 00:41:41;;;;;;;1.77;0.63;;;;;;;10.21;100.00;95518.09;5036434;28;20190;-86
2024/04/04 00:44:06;;;;;;;3.00;0.67;;;;;;;10.28;100.00;95521.47;5034450;28;20719;-87
2024/04/04 00:46:35;;;;;;;2.47;0.80;;;;;;;10.35;100.00;95522.22;5036608;28;20218;-86
2024/04/04 00:49:01;;;;;;;1.90;0.50;;;;;;;10.37;100.00;95522.81;5036288;28;20554;-87
2024/04/04 00:51:28;;;;;;;0.77;0.50;;;;;;;10.32;100.00;95516.56;5036428;28;20201;-86
2024/04/04 00:53:54;;;;;;;3.57;1.00;;;;;;;10.28;100.00;95518.84;5034315;28;20205;-86
2024/04/04 00:56:20;;;;;;;2.20;0.77;;;;;;;10.32;100.00;95512.13;5035584;28;20197;-87
2024/04/04 00:58:46;;;;;;;1.47;0.60;;;;;;;10.38;100.00;95515.72;5034907;28;20202;-87
2024/04/04 01:01:13;;;;;;;1.63;0.63;;;;;;;10.46;100.00;95517.22;5033149;28;20197;-87
2024/04/04 01:03:40;;;;;;;3.20;1.57;;;;;;;10.56;100.00;95515.69;5035697;28;20685;-87
2024/04/04 01:06:07;;;;;;;0.80;0.60;;;;;;;10.40;100.00;95517.09;5034893;28;20244;-87
2024/04/04 01:08:33;;;;;;;3.43;0.80;;;;;;;10.33;100.00;95512.94;5035013;28;20194;-87
2024/04/04 01:11:00;;;;;;;0.70;0.43;;;;;;;10.34;100.00;95517.97;5034981;28;20190;-87
2024/04/04 01:13:26;;;;;;;2.00;0.53;;;;;;;10.45;100.00;95505.91;5035037;28;20659;-87
2024/04/04 01:15:53;;;;;;;1.23;0.67;;;;;;;10.45;100.00;95513.00;5035149;28;20239;-87
2024/04/04 01:18:19;;;;;;;3.20;0.97;;;;;;;10.39;100.00;95510.22;5036939;28;20670;-87
2024/04/04 01:20:47;;;;;;;2.93;0.53;;;;;;;10.41;100.00;95521.31;5035126;28;20217;-86
2024/04/04 01:23:13;;;;;;;1.07;0.57;;;;;;;10.41;100.00;95517.88;5035081;28;20549;-87
2024/04/04 01:25:41;;;;;;;2.77;0.90;;;;;;;10.34;100.00;95517.97;5034604;28;20225;-87
2024/04/04 01:28:07;;;;;;;0.67;0.53;;;;;;;10.40;100.00;95526.81;5036664;28;20214;-87
2024/04/04 01:30:33;;;;;;;0.90;0.60;;;;;;;10.39;100.00;95526.00;5036455;28;20252;-87
2024/04/04 01:32:59;;;;;;;1.33;0.50;;;;;;;10.40;100.00;95517.09;5037079;28;20251;-87
2024/04/04 01:35:26;;;;;;;2.67;0.47;;;;;;;10.51;100.00;95520.00;5036656;28;20226;-87
2024/04/04 01:37:52;;;;;;;1.13;0.60;;;;;;;10.56;100.00;95513.06;5035769;28;20634;-87
2024/04/04 01:40:19;;;;;;;4.43;1.03;;;;;;;10.51;100.00;95512.13;5036839;28;20186;-87
2024/04/04 01:42:46;;;;;;;2.50;0.70;;;;;;;10.54;100.00;95504.59;5037030;28;20182;-87
2024/04/04 01:45:13;;;;;;;2.93;0.50;;;;;;;10.58;100.00;95504.94;5035134;28;20217;-87
2024/04/04 01:47:38;;;;;;;4.23;0.80;;;;;;;10.54;100.00;95506.41;5036365;28;20364;-87
2024/04/04 01:50:07;;;;;;;4.60;0.80;;;;;;;10.61;100.00;95505.31;5037464;28;20206;-87
2024/04/04 01:52:33;;;;;;;2.93;0.80;;;;;;;10.53;100.00;95507.41;5035368;28;20260;-87
2024/04/04 01:55:00;;;;;;;1.43;0.70;;;;;;;10.44;100.00;95501.66;5034887;28;20622;-87
2024/04/04 01:57:25;;;;;;;3.83;0.83;;;;;;;10.50;100.00;95507.88;5036688;28;20209;-87
2024/04/04 01:59:54;;;;;;;2.83;0.63;;;;;;;10.57;100.00;95517.28;5035656;28;20312;-87
2024/04/04 02:02:19;;;;;;;2.67;0.63;;;;;;;10.55;100.00;95508.81;5036159;28;20248;-87
2024/04/04 02:04:46;;;;;;;1.83;0.60;;;;;;;10.52;100.00;95501.38;5035336;28;20205;-88
2024/04/04 02:07:12;;;;;;;1.50;0.40;;;;;;;10.38;100.00;95508.59;5036632;28;20549;-87
2024/04/04 02:09:39;;;;;;;1.53;0.53;;;;;;;10.41;100.00;95502.09;5038249;28;20236;-87
2024/04/04 02:12:05;;;;;;;1.20;0.67;;;;;;;10.53;100.00;95504.78;5036949;28;20194;-87
2024/04/04 02:14:32;;;;;;;4.57;0.97;;;;;;;10.39;100.00;95498.88;5036351;28;20201;-87
2024/04/04 02:17:00;;;;;;;1.80;0.57;;;;;;;10.35;100.00;95492.44;5036737;28;20217;-87
2024/04/04 02:19:27;;;;;;;2.97;0.80;;;;;;;10.36;100.00;95486.16;5037601;28;20311;-87
2024/04/04 02:21:52;;;;;;;1.90;0.60;;;;;;;10.38;100.00;95492.78;5037281;28;20194;-88
2024/04/04 02:24:19;;;;;;;3.77;0.80;;;;;;;10.32;100.00;95504.22;5037312;28;20198;-87
2024/04/04 02:26:48;;;;;;;0.83;0.40;;;;;;;10.29;100.00;95501.22;5037056;28;20247;-87
2024/04/04 02:29:15;;;;;;;2.07;0.50;;;;;;;10.26;100.00;95494.56;5038680;28;20549;-87
2024/04/04 02:31:41;;;;;;;1.10;0.63;;;;;;;10.17;100.00;95493.25;5039189;28;20221;-87
2024/04/04 02:34:09;;;;;;;0.60;0.40;;;;;;;10.26;100.00;95484.03;5038175;28;20186;-88
2024/04/04 02:36:35;;;;;;;2.40;0.60;;;;;;;10.19;100.00;95496.47;5039636;28;20209;-87
2024/04/04 02:39:02;;;;;;;4.13;0.70;;;;;;;10.20;100.00;95490.16;5038236;28;20194;-87
2024/04/04 02:41:28;;;;;;;4.17;0.83;;;;;;;10.30;100.00;95482.56;5037822;28;20198;-87
2024/04/04 02:43:55;;;;;;;1.63;0.70;;;;;;;10.22;100.00;95488.13;5037542;28;20241;-87
2024/04/04 02:46:22;;;;;;;2.40;0.70;;;;;;;10.24;100.00;95486.09;5037923;28;20556;-87
2024/04/04 02:48:48;;;;;;;3.60;0.50;;;;;;;10.17;100.00;95477.47;5038490;28;20205;-87
2024/04/04 02:51:15;;;;;;;1.07;0.83;;;;;;;10.16;100.00;95475.03;5039205;28;20248;-87
2024/04/04 02:53:42;;;;;;;1.27;0.60;;;;;;;10.14;100.00;95470.00;5037107;28;20206;-87
2024/04/04 02:56:08;;;;;;;1.70;0.60;;;;;;;10.02;100.00;95468.25;5038683;28;20191;-88
2024/04/04 02:58:35;;;;;;;0.60;0.60;;;;;;;10.18;100.00;95468.53;5040469;28;20221;-87
2024/04/04 03:01:03;;;;;;;2.80;0.60;;;;;;;10.17;100.00;95474.03;5045065;28;20714;-87
2024/04/04 03:03:29;;;;;;;1.37;0.80;;;;;;;10.17;100.00;95472.19;5047991;28;20208;-87
2024/04/04 03:05:55;;;;;;;2.87;0.60;;;;;;;10.19;100.00;95471.97;5035204;28;20772;-87
2024/04/04 03:08:23;;;;;;;2.13;0.80;;;;;;;10.21;100.00;95462.84;5033172;28;20222;-87
2024/04/04 03:10:49;;;;;;;0.53;0.40;;;;;;;10.09;100.00;95476.91;5036678;28;20194;-87
2024/04/04 03:13:16;;;;;;;0.80;0.50;;;;;;;10.06;100.00;95472.09;5037314;28;20677;-87
2024/04/04 03:15:42;;;;;;;2.83;0.80;;;;;;;10.04;100.00;95461.75;5036392;28;20264;-87
2024/04/04 03:18:09;;;;;;;2.00;0.73;;;;;;;10.05;100.00;95465.19;5037188;28;20218;-87
2024/04/04 03:20:34;;;;;;;3.87;0.57;;;;;;;9.99;100.00;95468.72;5036854;28;20244;-87
2024/04/04 03:23:01;;;;;;;1.33;0.70;;;;;;;9.98;100.00;95469.72;5038965;28;20190;-87
2024/04/04 03:25:28;;;;;;;2.93;0.60;;;;;;;9.96;100.00;95469.16;5036378;28;20226;-86
2024/04/04 03:27:55;;;;;;;2.57;0.43;;;;;;;10.01;100.00;95461.41;5055690;28;20209;-87
2024/04/04 03:30:21;;;;;;;1.83;0.83;;;;;;;9.90;100.00;95470.00;5057249;28;20641;-87
2024/04/04 03:32:48;;;;;;;1.70;0.70;;;;;;;9.94;100.00;95473.81;5057496;28;20223;-87
2024/04/04 03:35:14;;;;;;;3.90;0.57;;;;;;;9.88;100.00;95462.34;5057870;28;20193;-87
2024/04/04 03:37:41;;;;;;;3.90;0.83;;;;;;;9.89;100.00;95466.59;5058234;28;20209;-87
2024/04/04 03:40:09;;;;;;;2.67;0.77;;;;;;;9.98;100.00;95472.34;5056926;28;20556;-87
2024/04/04 03:42:37;;;;;;;0.97;0.63;;;;;;;9.98;100.00;95464.47;5057247;28;20190;-87
2024/04/04 03:45:04;;;;;;;2.60;0.57;;;;;;;9.96;100.00;95474.41;5057685;28;20669;-87
2024/04/04 03:47:34;;;;;;;3.90;0.70;;;;;;;9.94;100.00;95463.31;5056564;28;20221;-87
2024/04/04 03:50:00;;;;;;;1.70;0.67;;;;;;;9.99;100.00;95473.97;5058177;28;20669;-87
2024/04/04 03:52:26;;;;;;;1.13;0.50;;;;;;;10.00;100.00;95472.94;5056873;28;20224;-87
2024/04/04 03:54:52;;;;;;;1.43;0.40;;;;;;;9.97;100.00;95473.38;5056673;28;20197;-87
2024/04/04 03:57:19;;;;;;;3.60;0.90;;;;;;;9.98;100.00;95467.09;5056785;28;20213;-87
2024/04/04 03:59:46;;;;;;;3.07;0.37;;;;;;;10.02;100.00;95471.72;5059277;28;20236;-87
2024/04/04 04:02:13;;;;;;;2.00;0.57;;;;;;;10.00;100.00;95465.06;5056374;28;20194;-87
2024/04/04 04:04:40;;;;;;;1.80;0.63;;;;;;;10.02;100.00;95473.53;5058169;28;20245;-87
2024/04/04 04:07:07;;;;;;;1.00;0.50;;;;;;;9.98;100.00;95472.34;5057882;28;20240;-87
2024/04/04 04:09:32;;;;;;;3.23;0.60;;;;;;;9.95;100.00;95465.69;5056553;28;20194;-87
2024/04/04 04:11:59;;;;;;;11.03;6.37;;;;;;;9.89;100.00;95471.84;5056952;28;20194;-87
2024/04/04 04:14:25;;;;;;;3.33;1.00;;;;;;;9.87;100.00;95476.50;5055671;28;20193;-87
2024/04/04 04:16:53;;;;;;;2.50;0.63;;;;;;;9.84;100.00;95476.13;5056935;28;20240;-87
2024/04/04 04:19:19;;;;;;;1.23;0.60;;;;;;;9.77;100.00;95465.69;5056246;28;20193;-87
2024/04/04 04:21:46;;;;;;;0.83;0.50;;;;;;;9.83;100.00;95471.88;5057855;28;20654;-87
2024/04/04 04:24:12;;;;;;;2.00;0.90;;;;;;;9.93;100.00;95473.00;5056051;28;20189;-87
2024/04/04 04:26:38;;;;;;;0.97;0.53;;;;;;;10.02;100.00;95469.06;5056290;28;20233;-86
2024/04/04 04:29:04;;;;;;;1.93;0.60;;;;;;;9.99;100.00;95466.88;5056513;28;20240;-86
2024/04/04 04:31:32;;;;;;;4.83;0.80;;;;;;;9.97;100.00;95463.66;5056390;28;20201;-87
2024/04/04 04:34:00;;;;;;;1.23;0.60;;;;;;;9.96;100.00;95459.44;5057568;28;20190;-87
2024/04/04 04:36:27;;;;;;;4.20;0.70;;;;;;;10.00;100.00;95471.13;5058184;28;20241;-87
2024/04/04 04:38:53;;;;;;;1.20;0.50;;;;;;;10.04;100.00;95461.75;5058259;28;20185;-87
2024/04/04 04:41:20;;;;;;;2.57;1.10;;;;;;;10.02;100.00;95465.63;5059132;28;20185;-87
2024/04/04 04:43:46;;;;;;;2.53;0.70;;;;;;;9.97;100.00;95460.22;5060911;28;20235;-87
2024/04/04 04:46:13;;;;;;;2.40;0.80;;;;;;;10.04;100.00;95469.66;5056564;28;20210;-87
2024/04/04 04:48:39;;;;;;;3.70;0.90;;;;;;;10.09;100.00;95467.19;5058515;28;20194;-86
2024/04/04 04:51:08;;;;;;;1.43;0.60;;;;;;;10.09;100.00;95467.19;5057150;28;20270;-87
2024/04/04 04:53:33;;;;;;;3.17;1.00;;;;;;;10.16;100.00;95459.25;5056826;28;20736;-87
2024/04/04 04:56:00;;;;;;;2.33;0.67;;;;;;;10.15;100.00;95462.91;5057220;28;20282;-87
2024/04/04 04:58:26;;;;;;;1.90;0.60;;;;;;;10.03;100.00;95483.03;5057804;28;20247;-87
2024/04/04 05:00:53;;;;;;;1.23;0.63;;;;;;;10.05;100.00;95475.72;5057521;28;20190;-87
2024/04/04 05:03:19;;;;;;;4.60;1.00;;;;;;;10.11;100.00;95472.22;5057823;28;20197;-87
2024/04/04 05:05:46;;;;;;;3.63;1.07;;;;;;;10.26;100.00;95465.63;5056914;28;20304;-87
2024/04/04 05:08:13;;;;;;;5.00;1.30;;;;;;;10.27;100.00;95469.03;5057100;28;20221;-88
2024/04/04 05:10:40;;;;;;;3.30;1.30;;;;;;;10.22;100.00;95467.06;5060306;28;20193;-87
2024/04/04 05:13:06;;;;;;;5.77;1.60;;;;;;;10.24;100.00;95467.66;5058096;28;20198;-87
2024/04/04 05:15:42;;;;;;;6.07;1.77;;;;;;;10.23;100.00;95468.69;5055600;28;20251;-86
2024/04/04 05:18:08;;;;;;;3.40;1.37;;;;;;;10.29;100.00;95459.13;5053815;28;20213;-85
2024/04/04 05:20:35;;;;;;;11.30;1.50;;;;;;;10.23;100.00;95463.41;5054249;28;20197;-87
2024/04/04 05:23:01;;;;;;;4.00;1.03;;;;;;;10.27;100.00;95461.94;5055114;28;20193;-86
2024/04/04 05:25:29;;;;;;;3.93;0.93;;;;;;;10.41;100.00;95455.50;5054348;28;20247;-87
2024/04/04 05:27:55;;;;;;;6.17;1.10;;;;;;;10.44;100.00;95462.16;5055357;28;20236;-86
2024/04/04 05:30:22;;;;;;;7.83;1.20;;;;;;;10.39;100.00;95454.94;5054307;28;20205;-86
2024/04/04 05:32:47;;;;;;;4.83;1.27;;;;;;;10.43;100.00;95472.94;5054562;28;20247;-87
2024/04/04 05:35:15;;;;;;;4.90;0.97;;;;;;;10.50;100.00;95474.47;5057259;28;20625;-86
2024/04/04 05:37:40;;;;;;;7.33;1.43;;;;;;;10.47;100.00;95474.09;5056425;28;20223;-87
2024/04/04 05:40:09;;;;;;;6.00;0.90;;;;;;;10.50;100.00;95481.56;5057480;28;20190;-86
2024/04/04 05:42:36;;;;;;;6.10;0.97;;;;;;;10.55;100.00;95469.31;5059244;28;20194;-86
2024/04/04 05:45:04;;;;;;;6.97;1.30;;;;;;;10.59;100.00;95481.03;5058604;28;20247;-87
2024/04/04 05:47:29;;;;;;;9.63;1.70;;;;;;;10.66;100.00;95478.31;5061467;28;20672;-87
2024/04/04 05:49:56;;;;;;;4.10;1.60;;;;;;;10.72;100.00;95485.31;5065434;28;20262;-87
2024/04/04 05:52:22;;;;;;;7.00;1.00;;;;;;;10.73;100.00;95487.75;5054543;28;20203;-87
2024/04/04 05:54:50;;;;;;;9.60;1.80;;;;;;;10.77;100.00;95483.63;5053454;28;20643;-86
2024/04/04 05:57:16;;;;;;;7.87;1.57;;;;;;;10.88;100.00;95476.81;5054177;28;20693;-87
2024/04/04 05:59:45;;;;;;;8.83;1.70;;;;;;;11.00;100.00;95480.28;5053633;28;20193;-87
2024/04/04 06:02:11;;;;;;;9.93;1.40;;;;;;;10.99;100.00;95482.13;5054601;28;20209;-87
2024/04/04 06:04:37;;;;;;;4.40;1.20;;;;;;;11.04;100.00;95479.63;5056773;28;20205;-86
2024/04/04 06:07:04;;;;;;;7.43;1.37;;;;;;;10.95;100.00;95469.59;5054887;28;20247;-86
2024/04/04 06:09:30;;;;;;;5.40;1.40;;;;;;;10.96;100.00;95474.69;5053986;28;20209;-86
2024/04/04 06:11:56;;;;;;;6.27;1.20;;;;;;;11.02;100.00;95478.22;5056211;28;20247;-86
2024/04/04 06:14:23;;;;;;;9.50;1.57;;;;;;;11.04;100.00;95478.81;5055414;28;20217;-86
2024/04/04 06:16:50;;;;;;;4.97;1.40;;;;;;;11.09;100.00;95484.22;5057911;28;20212;-85
2024/04/04 06:19:17;;;;;;;6.23;1.70;;;;;;;11.17;100.00;95475.19;5060320;28;20180;-85
2024/04/04 06:21:43;;;;;;;6.57;1.23;;;;;;;11.24;100.00;95473.25;5040029;28;20194;-87
2024/04/04 06:24:10;;;;;;;7.60;1.53;;;;;;;11.26;100.00;95479.13;5034369;28;20247;-86
2024/04/04 06:26:36;;;;;;;5.97;1.23;;;;;;;11.33;100.00;95478.00;5034250;28;20222;-87
2024/04/04 06:29:02;;;;;;;6.93;1.37;;;;;;;11.34;100.00;95468.25;5036209;28;20194;-86
2024/04/04 06:31:28;;;;;;;5.23;1.37;;;;;;;11.39;100.00;95474.44;5037769;28;20182;-87
2024/04/04 06:33:57;;;;;;;8.40;1.40;;;;;;;11.51;100.00;95472.63;5038110;28;20225;-87
2024/04/04 06:36:23;;;;;;;6.97;1.07;;;;;;;11.62;100.00;95477.13;5036586;28;20615;-87
2024/04/04 06:38:53;;;;;;;8.77;1.37;;;;;;;11.69;100.00;95477.84;5032957;28;20190;-86
2024/04/04 06:41:19;;;;;;;4.37;1.40;;;;;;;11.86;100.00;95474.53;5032722;28;20206;-87
2024/04/04 06:43:46;;;;;;;7.87;1.40;;;;;;;11.86;100.00;95472.69;5035725;28;20194;-87
2024/04/04 06:46:12;;;;;;;6.87;1.60;;;;;;;11.93;100.00;95472.56;5039915;28;20225;-87
2024/04/04 06:48:41;;;;;;;5.80;1.40;;;;;;;12.00;100.00;95460.88;5041000;28;20599;-87
2024/04/04 06:51:08;;;;;;;4.97;1.00;;;;;;;12.14;100.00;95464.06;5041381;28;20201;-88
2024/04/04 06:53:35;;;;;;;4.13;1.20;;;;;;;12.16;100.00;95462.81;5041726;28;20208;-88
2024/04/04 06:56:00;;;;;;;10.00;1.90;;;;;;;12.24;100.00;95467.75;5042269;28;20736;-87
2024/04/04 06:58:27;;;;;;;2.80;1.17;;;;;;;12.35;100.00;95466.13;5042358;28;20194;-87
2024/04/04 07:00:56;;;;;;;11.30;1.23;;;;;;;12.48;100.00;95465.88;5042254;28;20193;-87
2024/04/04 07:03:23;;;;;;;5.30;1.60;;;;;;;12.45;100.00;95466.34;5041087;28;20210;-86
2024/04/04 07:05:49;;;;;;;4.77;0.90;;;;;;;12.28;100.00;95476.81;5041844;28;20216;-88
2024/04/04 07:08:17;;;;;;;2.60;0.93;;;;;;;12.44;100.00;95481.38;5039959;28;20686;-88
2024/04/04 07:10:43;;;;;;;4.90;1.40;;;;;;;12.27;100.00;95477.88;5041634;28;20190;-88
2024/04/04 07:13:10;;;;;;;3.37;0.83;;;;;;;12.02;100.00;95492.34;5039710;28;20272;-88
2024/04/04 07:15:36;;;;;;;5.83;1.23;;;;;;;12.02;100.00;95497.63;5038348;28;20198;-88
2024/04/04 07:18:08;;;;;;;3.17;1.20;;;;;;;12.00;100.00;95502.31;5043654;28;20568;-88
2024/04/04 07:20:35;;;;;;;7.30;1.17;;;;;;;11.97;100.00;95500.91;5042270;28;20209;-88
2024/04/04 07:23:02;;;;;;;5.50;1.30;;;;;;;11.88;100.00;95512.84;5040429;28;20201;-88
2024/04/04 07:25:29;;;;;;;3.80;1.20;;;;;;;11.81;100.00;95514.03;5040381;28;20739;-88
2024/04/04 07:27:56;;;;;;;3.97;1.00;;;;;;;11.69;100.00;95490.25;5039598;28;20217;-88
2024/04/04 07:30:21;;;;;;;4.53;1.20;;;;;;;11.58;100.00;95507.63;5039435;28;20194;-87
2024/04/04 07:32:48;;;;;;;7.83;1.47;;;;;;;11.46;100.00;95500.75;5038355;28;20201;-87
2024/04/04 07:35:14;;;;;;;5.07;1.20;;;;;;;11.43;100.00;95504.63;5037680;28;20240;-87
2024/04/04 07:37:41;;;;;;;7.93;1.27;;;;;;;11.37;100.00;95510.78;5039595;28;20209;-88
2024/04/04 07:40:07;;;;;;;5.33;1.27;;;;;;;11.39;100.00;95516.63;5038041;28;20187;-87
2024/04/04 07:42:36;;;;;;;5.40;1.83;;;;;;;11.37;100.00;95525.78;5037197;28;20182;-88
2024/04/04 07:45:01;;;;;;;6.20;1.90;;;;;;;11.44;100.00;95522.03;5038018;28;20191;-88
2024/04/04 07:47:28;;;;;;;7.33;1.50;;;;;;;11.43;100.00;95536.28;5038860;28;20252;-87
2024/04/04 07:49:54;;;;;;;5.73;1.27;;;;;;;11.33;100.00;95533.38;5037160;28;20659;-84
2024/04/04 07:52:21;;;;;;;7.77;1.53;;;;;;;11.38;100.00;95532.69;5038840;28;20212;-85
2024/04/04 07:54:47;;;;;;;9.57;2.20;;;;;;;11.41;100.00;95530.41;5037697;28;20232;-85
2024/04/04 07:57:13;;;;;;;4.97;1.70;;;;;;;11.35;100.00;95539.22;5035532;28;20687;-86
2024/04/04 07:59:43;;;;;;;9.87;1.90;;;;;;;11.50;100.00;95536.97;5038634;28;20240;-87
2024/04/04 08:02:10;;;;;;;6.83;2.03;;;;;;;11.31;100.00;95538.06;5039661;28;20205;-85
2024/04/04 08:04:35;;;;;;;5.60;2.00;;;;;;;11.40;100.00;95526.16;5039849;28;20190;-86
2024/04/04 08:07:02;;;;;;;9.33;1.40;;;;;;;11.42;100.00;95528.56;5058024;28;20662;-85
2024/04/04 08:09:29;;;;;;;3.90;1.50;;;;;;;11.51;100.00;95532.50;5056949;28;20197;-85
2024/04/04 08:11:55;;;;;;;7.40;1.70;;;;;;;11.33;100.00;95540.47;5057036;28;20193;-85
2024/04/04 08:14:22;;;;;;;5.50;1.50;;;;;;;11.58;100.00;95528.72;5055934;28;20255;-86
2024/04/04 08:16:51;;;;;;;9.40;2.00;;;;;;;11.41;100.00;95533.03;5057246;28;20252;-86
2024/04/04 08:19:16;;;;;;;7.17;1.40;;;;;;;11.48;100.00;95528.47;5056646;28;20189;-85
2024/04/04 08:21:43;;;;;;;3.10;1.40;;;;;;;11.52;100.00;95532.28;5057068;28;20212;-86
2024/04/04 08:24:09;;;;;;;6.53;2.13;;;;;;;11.47;100.00;95542.69;5056284;28;20197;-86
2024/04/04 08:26:36;;;;;;;6.30;1.30;;;;;;;11.44;100.00;95537.88;5057121;28;20229;-86
2024/04/04 08:29:02;;;;;;;5.57;1.63;;;;;;;11.44;100.00;95539.69;5058529;28;20212;-85
2024/04/04 08:31:28;;;;;;;8.53;1.73;;;;;;;11.51;100.00;95529.84;5058731;28;20316;-86
2024/04/04 08:33:56;;;;;;;5.53;1.70;;;;;;;11.54;100.00;95537.31;5058653;28;20654;-86
2024/04/04 08:36:22;;;;;;;7.60;1.77;;;;;;;11.67;100.00;95537.13;5056529;28;20623;-86
2024/04/04 08:38:49;;;;;;;7.83;2.10;;;;;;;11.71;100.00;95523.31;5057382;28;20603;-85
2024/04/04 08:41:18;;;;;;;4.33;1.53;;;;;;;11.61;100.00;95528.28;5048890;28;20737;-85
2024/04/04 08:43:44;;;;;;;4.97;1.40;;;;;;;11.66;100.00;95524.97;5041580;28;20194;-85
2024/04/04 08:46:11;;;;;;;7.77;1.53;;;;;;;11.67;100.00;95524.75;5038226;28;20197;-85
2024/04/04 08:48:37;;;;;;;8.57;1.53;;;;;;;11.61;100.00;95527.47;5037440;28;20198;-86
2024/04/04 08:51:07;;;;;;;5.20;1.40;;;;;;;11.66;100.00;95546.88;5038851;28;20261;-86
2024/04/04 08:53:33;;;;;;;8.13;1.83;;;;;;;11.79;100.00;95536.16;5036432;28;20204;-85
2024/04/04 08:56:00;;;;;;;7.67;1.80;;;;;;;11.82;100.00;95534.09;5036819;28;20216;-86
2024/04/04 08:58:26;;;;;;;5.60;1.37;;;;;;;11.83;100.00;95530.41;5036953;28;20187;-85
2024/04/04 09:00:53;;;;;;;6.67;1.37;;;;;;;11.96;100.00;95524.91;5036570;28;20198;-85
2024/04/04 09:03:19;;;;;;;4.50;1.27;;;;;;;11.83;100.00;95530.41;5037001;28;20194;-85
2024/04/04 09:05:45;;;;;;;5.07;1.93;;;;;;;11.93;100.00;95522.72;5037578;28;20530;-85
2024/04/04 09:08:13;;;;;;;7.07;1.50;;;;;;;12.03;100.00;95526.41;5038585;28;20221;-85
2024/04/04 09:10:39;;;;;;;4.33;1.60;;;;;;;12.14;100.00;95527.44;5037125;28;20194;-85
2024/04/04 09:13:06;;;;;;;4.37;1.50;;;;;;;12.23;100.00;95528.69;5046523;28;20244;-86
2024/04/04 09:15:33;;;;;;;5.10;1.30;;;;;;;12.35;100.00;95524.22;5047490;28;20186;-85
2024/04/04 09:18:04;;;;;;;9.97;1.47;;;;;;;12.26;100.00;95530.88;5046011;28;20260;-85
2024/04/04 09:20:32;;;;;;;8.57;2.43;;;;;;;12.34;100.00;95526.09;5053006;28;20197;-85
2024/04/04 09:22:59;;;;;;;4.37;1.43;;;;;;;12.39;100.00;95530.66;5050535;28;20324;-85
2024/04/04 09:25:27;;;;;;;5.37;1.53;;;;;;;12.51;100.00;95525.38;5055682;28;20197;-85
2024/04/04 09:27:53;;;;;;;4.40;1.33;;;;;;;12.67;100.00;95529.94;5057027;28;20218;-86
2024/04/04 09:30:20;;;;;;;5.23;1.30;;;;;;;12.75;100.00;95529.56;5056414;28;20220;-84
2024/04/04 09:32:46;;;;;;;3.73;1.00;;;;;;;12.86;100.00;95534.81;5059692;28;20613;-84
2024/04/04 09:35:12;;;;;;;3.70;1.13;;;;;;;12.92;100.00;95531.25;5059398;28;20197;-85
2024/04/04 09:37:39;;;;;;;7.90;1.40;;;;;;;12.89;100.00;95536.19;5055019;28;20213;-85
2024/04/04 09:40:07;;;;;;;7.53;1.20;;;;;;;12.94;100.00;95531.81;5052917;28;20228;-84
2024/04/04 09:42:36;;;;;;;7.37;1.43;;;;;;;12.86;100.00;95532.19;5052655;28;20236;-84
2024/04/04 09:45:04;;;;;;;6.03;1.67;;;;;;;12.82;100.00;95546.09;5051672;28;20212;-85
2024/04/04 09:47:29;;;;;;;3.90;1.20;;;;;;;12.76;100.00;95549.69;5052902;28;20271;-84
2024/04/04 09:49:58;;;;;;;6.00;1.70;;;;;;;12.67;100.00;95537.88;5054538;28;20581;-84
2024/04/04 09:52:23;;;;;;;4.17;1.40;;;;;;;12.59;100.00;95540.84;5054787;28;20222;-84
2024/04/04 09:54:50;;;;;;;6.37;1.53;;;;;;;12.53;100.00;95547.09;5051782;28;20219;-85
2024/04/04 09:57:16;;;;;;;6.70;1.67;;;;;;;12.63;100.00;95536.72;5052937;28;20228;-85
2024/04/04 09:59:46;;;;;;;5.30;1.60;;;;;;;12.55;100.00;95551.09;5053334;28;20202;-85
2024/04/04 10:02:12;;;;;;;10.20;1.83;;;;;;;12.74;100.00;95551.75;5055289;28;20323;-85
2024/04/04 10:04:39;;;;;;;5.67;1.43;;;;;;;12.82;100.00;95551.38;5054976;28;20232;-85
2024/04/04 10:07:05;;;;;;;10.30;1.60;;;;;;;12.83;100.00;95543.25;5056660;28;20217;-85
2024/04/04 10:09:37;;;;;;;4.20;1.57;;;;;;;12.82;100.00;95544.25;5057289;28;20276;-85
2024/04/04 10:12:07;;;;;;;7.53;1.83;;;;;;;12.75;100.00;95546.22;5056990;28;20276;-85
2024/04/04 10:14:34;;;;;;;6.37;1.77;;;;;;;12.84;100.00;95547.47;5055416;28;20189;-86
2024/04/04 10:17:05;;;;;;;6.10;1.67;;;;;;;12.80;100.00;95548.19;5058543;28;20217;-85
2024/04/04 10:19:33;;;;;;;8.90;2.00;;;;;;;12.91;100.00;95539.41;5056729;28;20201;-84
2024/04/04 10:21:59;;;;;;;6.10;2.27;;;;;;;13.03;100.00;95548.13;5055633;28;20227;-85
2024/04/04 10:24:28;;;;;;;9.73;2.00;;;;;;;13.22;100.00;95554.88;5054973;28;20196;-85
2024/04/04 10:26:54;;;;;;;5.83;2.20;;;;;;;13.18;100.00;95545.81;5055310;28;20723;-85
2024/04/04 10:29:21;;;;;;;5.17;1.70;;;;;;;13.02;100.00;95554.47;5055283;28;20197;-85
2024/04/04 10:31:47;;;;;;;4.40;1.73;;;;;;;13.11;100.00;95550.44;5055139;28;20236;-85
2024/04/04 10:34:15;;;;;;;6.47;1.77;;;;;;;13.12;100.00;95547.53;5056429;28;20198;-85
2024/04/04 10:36:44;;;;;;;7.77;1.60;;;;;;;13.14;100.00;95542.81;5055671;28;20212;-85
2024/04/04 10:39:13;;;;;;;5.50;1.37;;;;;;;13.31;100.00;95555.28;5057491;28;20209;-85
2024/04/04 10:41:40;;;;;;;4.63;2.00;;;;;;;13.23;100.00;95545.09;5056995;28;20595;-85
2024/04/04 10:44:14;;;;;;;14.87;8.40;;;;;;;13.40;100.00;95538.00;5055323;28;20223;-85
2024/04/04 10:46:41;;;;;;;36.90;24.07;;;;;;;13.43;100.00;95540.19;5055818;28;20209;-84
2024/04/04 10:49:08;;;;;;;8.40;4.57;;;;;;;13.43;100.00;95537.53;5055790;28;20737;-85
2024/04/04 10:51:36;;;;;;;8.97;4.60;;;;;;;13.45;100.00;95527.50;5055844;28;20194;-85
2024/04/04 10:54:03;;;;;;;4.67;2.20;;;;;;;13.42;100.00;95526.13;5055321;28;20197;-84
2024/04/04 10:56:29;;;;;;;3.43;1.30;;;;;;;13.17;100.00;95530.97;5057823;28;20217;-85
2024/04/04 10:58:56;;;;;;;7.07;2.57;;;;;;;13.18;100.00;95534.41;5057851;28;20197;-85
2024/04/04 11:01:22;;;;;;;4.37;1.30;;;;;;;13.05;100.00;95531.00;5057845;28;20194;-85
2024/04/04 11:03:51;;;;;;;3.73;0.90;;;;;;;13.24;100.00;95534.28;5056225;28;20255;-85
2024/04/04 11:06:17;;;;;;;5.43;0.90;;;;;;;13.15;100.00;95535.69;5056952;28;20193;-85
2024/04/04 11:08:46;;;;;;;3.83;1.13;;;;;;;13.04;100.00;95539.97;5056521;28;20267;-85
2024/04/04 11:11:12;;;;;;;4.10;1.57;;;;;;;13.03;100.00;95541.00;5058875;28;20284;-85
2024/04/04 11:13:39;;;;;;;4.53;0.90;;;;;;;13.03;100.00;95538.34;5058596;28;20200;-85
2024/04/04 11:16:05;;;;;;;2.80;1.17;;;;;;;13.21;100.00;95526.03;5058528;28;20229;-85
2024/04/04 11:18:34;;;;;;;6.83;1.70;;;;;;;13.02;100.00;95528.00;5059776;28;20197;-85
2024/04/04 11:21:00;;;;;;;14.87;2.40;;;;;;;13.20;100.00;95524.41;5063149;28;20196;-85
2024/04/04 11:23:27;;;;;;;5.93;1.03;;;;;;;13.10;100.00;95525.00;5058117;28;20567;-85